Time;durP1;ratioP1;P1;durP2;ratioP2;P2;SDS_P1;SDS_P2;PMS_P1;PMS_P2;Temp;Humidity;BMP_temperature;BMP_pressure;BME280_temperature;BME280_humidity;BME280_pressure;Samples;Min_cycle;Max_cycle;Signal;HPM_P1;HPM_P2
2022/06/29 00:02:22;;;;;;;;;;;20.40;57.00;;;;;;5144521;27;19931;-46
2022/06/29 00:04:47;;;;;;;;;;;20.00;55.90;;;;;;5144290;27;20522;-46
2022/06/29 00:07:13;;;;;;;;;;;19.90;54.70;;;;;;5148208;27;20344;-48
2022/06/29 00:09:39;;;;;;;;;;;20.10;58.10;;;;;;5144031;27;19952;-47
2022/06/29 00:12:05;;;;;;;;;;;20.70;62.60;;;;;;5148815;27;19923;-51
2022/06/29 00:14:30;;;;;;;;;;;21.40;62.70;;;;;;5144569;27;19929;-46
2022/06/29 00:16:56;;;;;;;;;;;21.50;60.00;;;;;;5144555;27;19923;-46
2022/06/29 00:19:22;;;;;;;;;;;20.60;58.30;;;;;;5150360;27;19927;-46
2022/06/29 00:21:48;;;;;;;;;;;20.20;56.40;;;;;;5144208;27;20401;-47
2022/06/29 00:24:14;;;;;;;;;;;19.80;55.60;;;;;;5142540;27;20368;-45
2022/06/29 00:26:39;;;;;;;;;;;19.90;54.60;;;;;;5148580;27;20302;-46
2022/06/29 00:29:06;;;;;;;;;;;20.00;58.80;;;;;;5144192;27;19927;-48
2022/06/29 00:31:31;;;;;;;;;;;20.80;62.80;;;;;;5147632;27;20439;-54
2022/06/29 00:33:57;;;;;;;;;;;21.50;62.50;;;;;;5146657;27;19928;-46
2022/06/29 00:36:23;;;;;;;;;;;21.30;59.90;;;;;;5144042;27;19949;-47
2022/06/29 00:38:49;;;;;;;;;;;20.70;57.60;;;;;;5149384;27;19923;-45
2022/06/29 00:41:14;;;;;;;;;;;20.40;55.90;;;;;;5143775;27;20447;-47
2022/06/29 00:43:41;;;;;;;;;;;19.90;55.30;;;;;;5142051;27;20259;-47
2022/06/29 00:46:06;;;;;;;;;;;20.00;54.10;;;;;;5148621;27;19923;-49
2022/06/29 00:48:32;;;;;;;;;;;19.70;54.00;;;;;;5143589;27;19923;-49
2022/06/29 00:50:58;;;;;;;;;;;20.30;60.30;;;;;;5144713;27;19924;-58
2022/06/29 00:53:24;;;;;;;;;;;21.00;62.50;;;;;;5148473;27;19927;-47
2022/06/29 00:55:50;;;;;;;;;;;21.70;61.90;;;;;;5108305;27;19983;-46
2022/06/29 00:58:15;;;;;;;;;;;21.30;59.30;;;;;;5148890;27;19930;-45
2022/06/29 01:00:42;;;;;;;;;;;20.60;57.60;;;;;;5142152;27;20986;-48
2022/06/29 01:03:08;;;;;;;;;;;20.20;56.20;;;;;;5142050;27;19927;-46
2022/06/29 01:05:34;;;;;;;;;;;20.00;55.30;;;;;;5148255;27;19927;-50
2022/06/29 01:08:00;;;;;;;;;;;19.90;54.20;;;;;;5143154;27;19971;-46
2022/06/29 01:10:26;;;;;;;;;;;19.90;57.80;;;;;;5143349;27;19922;-48
2022/06/29 01:12:52;;;;;;;;;;;20.70;62.20;;;;;;5148814;27;20423;-45
2022/06/29 01:15:20;;;;;;;;;;;21.30;62.60;;;;;;5143139;27;19923;-45
2022/06/29 01:17:46;;;;;;;;;;;21.50;60.10;;;;;;5148741;27;19931;-46
2022/06/29 01:20:12;;;;;;;;;;;20.70;58.00;;;;;;5141136;27;20332;-46
2022/06/29 01:22:38;;;;;;;;;;;20.20;56.50;;;;;;5141386;27;19927;-49
2022/06/29 01:25:04;;;;;;;;;;;20.00;55.30;;;;;;5148350;27;19929;-46
2022/06/29 01:27:30;;;;;;;;;;;19.80;54.60;;;;;;5124421;27;19944;-47
2022/06/29 01:29:55;;;;;;;;;;;20.20;60.00;;;;;;5142841;27;20310;-48
2022/06/29 01:32:21;;;;;;;;;;;20.80;63.10;;;;;;5148550;27;19926;-47
2022/06/29 01:34:47;;;;;;;;;;;21.60;62.20;;;;;;5142668;27;19936;-45
2022/06/29 01:37:13;;;;;;;;;;;21.30;59.50;;;;;;5147508;27;20290;-46
2022/06/29 01:39:39;;;;;;;;;;;20.50;57.80;;;;;;5141565;27;19923;-45
2022/06/29 01:42:05;;;;;;;;;;;20.30;56.00;;;;;;5142237;27;20342;-50
2022/06/29 01:44:31;;;;;;;;;;;19.90;55.30;;;;;;5147657;27;20842;-46
2022/06/29 01:46:56;;;;;;;;;;;19.70;54.70;;;;;;5142476;27;19926;-46
2022/06/29 01:49:23;;;;;;;;;;;20.10;58.30;;;;;;5142865;27;20194;-49
2022/06/29 01:51:49;;;;;;;;;;;20.80;62.70;;;;;;5147912;27;20347;-47
2022/06/29 01:54:15;;;;;;;;;;;21.40;62.70;;;;;;5142299;27;19974;-47
2022/06/29 01:56:41;;;;;;;;;;;21.50;60.40;;;;;;5144101;27;19995;-52
2022/06/29 01:59:06;;;;;;;;;;;20.70;58.30;;;;;;5143933;27;19923;-48
2022/06/29 02:01:32;;;;;;;;;;;20.20;56.30;;;;;;5142228;27;19942;-47
2022/06/29 02:03:58;;;;;;;;;;;20.00;55.00;;;;;;5147497;27;20344;-47
2022/06/29 02:06:24;;;;;;;;;;;19.70;55.00;;;;;;5142325;27;19934;-47
2022/06/29 02:08:50;;;;;;;;;;;19.90;56.10;;;;;;5142209;27;19923;-48
2022/06/29 02:11:16;;;;;;;;;;;20.40;62.00;;;;;;5147736;27;20383;-48
2022/06/29 02:13:42;;;;;;;;;;;21.20;62.90;;;;;;5141532;27;19977;-46
2022/06/29 02:16:08;;;;;;;;;;;21.80;60.90;;;;;;5141608;27;19940;-55
2022/06/29 02:18:33;;;;;;;;;;;20.80;58.80;;;;;;5146178;27;19931;-50
2022/06/29 02:20:59;;;;;;;;;;;20.30;56.70;;;;;;5141792;27;20290;-44
2022/06/29 02:23:25;;;;;;;;;;;20.00;55.90;;;;;;5147235;27;19927;-45
2022/06/29 02:25:51;;;;;;;;;;;19.90;54.70;;;;;;5141925;27;19923;-47
2022/06/29 02:28:16;;;;;;;;;;;20.20;59.40;;;;;;5142213;27;19979;-49
2022/06/29 02:36:11;;;;;;;;;;;21.10;59.10;;;;;;5141380;27;19923;-45
2022/06/29 02:38:37;;;;;;;;;;;20.40;57.00;;;;;;5147081;27;19931;-48
2022/06/29 02:41:03;;;;;;;;;;;20.30;55.80;;;;;;5141528;27;20378;-46
2022/06/29 02:43:28;;;;;;;;;;;20.10;54.40;;;;;;5141872;27;19973;-46
2022/06/29 02:45:54;;;;;;;;;;;19.70;54.50;;;;;;5147380;27;19923;-47
2022/06/29 02:48:20;;;;;;;;;;;20.10;58.90;;;;;;5141725;27;19923;-48
2022/06/29 02:50:46;;;;;;;;;;;20.80;62.40;;;;;;5127962;27;19934;-52
2022/06/29 02:53:12;;;;;;;;;;;21.40;62.40;;;;;;5140447;27;19969;-50
2022/06/29 02:55:37;;;;;;;;;;;21.40;59.80;;;;;;5141446;27;20007;-46
2022/06/29 02:58:03;;;;;;;;;;;20.50;57.90;;;;;;5147231;27;19926;-46
2022/06/29 03:00:29;;;;;;;;;;;20.10;56.50;;;;;;5141953;27;20381;-46
2022/06/29 03:02:55;;;;;;;;;;;19.80;55.50;;;;;;5141671;27;19922;-46
2022/06/29 03:05:21;;;;;;;;;;;19.70;54.70;;;;;;5147057;27;19953;-51
2022/06/29 03:07:46;;;;;;;;;;;20.20;60.20;;;;;;5141687;27;19923;-47
2022/06/29 03:10:12;;;;;;;;;;;20.90;62.80;;;;;;5125565;27;19968;-53
2022/06/29 03:12:38;;;;;;;;;;;21.60;62.10;;;;;;5123106;27;19934;-48
2022/06/29 03:15:04;;;;;;;;;;;21.00;59.70;;;;;;5141327;27;20003;-47
2022/06/29 03:17:30;;;;;;;;;;;20.40;57.50;;;;;;5146852;27;19929;-44
2022/06/29 03:19:56;;;;;;;;;;;20.20;55.70;;;;;;5141429;27;19923;-47
2022/06/29 03:22:21;;;;;;;;;;;19.80;55.00;;;;;;5141506;27;19923;-47
2022/06/29 03:24:47;;;;;;;;;;;19.80;55.50;;;;;;5146994;27;19923;-47
2022/06/29 03:27:13;;;;;;;;;;;20.50;61.20;;;;;;5140573;27;20295;-49
2022/06/29 03:29:39;;;;;;;;;;;21.00;63.00;;;;;;5141786;27;19957;-58
2022/06/29 03:32:04;;;;;;;;;;;21.70;61.80;;;;;;5126285;27;19941;-48
2022/06/29 03:34:30;;;;;;;;;;;21.00;58.80;;;;;;5141185;27;19927;-47
2022/06/29 03:36:56;;;;;;;;;;;20.40;57.30;;;;;;5128348;27;19923;-48
2022/06/29 03:39:22;;;;;;;;;;;20.10;55.70;;;;;;5141323;27;20310;-48
2022/06/29 03:41:47;;;;;;;;;;;20.00;54.70;;;;;;5141538;27;19931;-48
2022/06/29 03:44:13;;;;;;;;;;;19.70;54.90;;;;;;5146754;27;19923;-47
2022/06/29 03:46:39;;;;;;;;;;;20.30;61.20;;;;;;5142157;27;19922;-48
2022/06/29 03:49:05;;;;;;;;;;;21.00;62.70;;;;;;5144153;27;19962;-49
2022/06/29 03:51:30;;;;;;;;;;;21.70;61.90;;;;;;5149787;27;19971;-44
2022/06/29 03:53:56;;;;;;;;;;;21.00;59.20;;;;;;5144537;27;19923;-47
2022/06/29 03:56:22;;;;;;;;;;;20.30;57.50;;;;;;5150521;27;20378;-48
2022/06/29 03:58:48;;;;;;;;;;;20.00;55.90;;;;;;5144978;27;20310;-45
2022/06/29 04:01:13;;;;;;;;;;;19.80;54.90;;;;;;5144726;27;19952;-45
2022/06/29 04:03:39;;;;;;;;;;;19.80;54.00;;;;;;5149690;27;19927;-48
2022/06/29 04:06:06;;;;;;;;;;;20.30;59.90;;;;;;5142689;27;20374;-49
2022/06/29 04:08:32;;;;;;;;;;;20.90;62.60;;;;;;5144095;27;19979;-47
2022/06/29 04:10:57;;;;;;;;;;;21.60;62.20;;;;;;5149752;27;20370;-48
2022/06/29 04:13:23;;;;;;;;;;;21.30;59.80;;;;;;5144276;27;20297;-44
2022/06/29 04:15:49;;;;;;;;;;;20.50;57.80;;;;;;5149775;27;19923;-45
2022/06/29 04:18:15;;;;;;;;;;;20.20;55.90;;;;;;5144513;27;19931;-46
2022/06/29 04:23:25;;;;;;;;;;;19.80;54.40;;;;;;5147875;27;20025;-50
2022/06/29 04:25:51;;;;;;;;;;;20.30;61.20;;;;;;5143314;27;21616;-48
2022/06/29 04:28:17;;;;;;;;;;;21.00;62.90;;;;;;5144116;27;19931;-46
2022/06/29 04:30:43;;;;;;;;;;;21.70;62.10;;;;;;5149338;27;19927;-45
2022/06/29 04:33:08;;;;;;;;;;;21.00;59.40;;;;;;5144147;27;19923;-44
2022/06/29 04:35:34;;;;;;;;;;;20.30;57.90;;;;;;5144168;27;19923;-45
2022/06/29 04:38:00;;;;;;;;;;;20.20;55.90;;;;;;5149559;27;19927;-45
2022/06/29 04:40:26;;;;;;;;;;;19.90;54.80;;;;;;5143854;27;19927;-46
2022/06/29 04:42:52;;;;;;;;;;;19.80;54.60;;;;;;5147554;27;20369;-46
2022/06/29 04:48:02;;;;;;;;;;;21.00;63.10;;;;;;5143779;27;19927;-46
2022/06/29 04:50:28;;;;;;;;;;;21.70;61.20;;;;;;5149334;27;19927;-46
2022/06/29 04:52:54;;;;;;;;;;;20.80;59.10;;;;;;5143800;27;19930;-45
2022/06/29 04:55:20;;;;;;;;;;;20.40;57.00;;;;;;5143674;27;19923;-44
2022/06/29 04:57:46;;;;;;;;;;;20.00;55.50;;;;;;5148856;27;19930;-45
2022/06/29 05:00:12;;;;;;;;;;;19.80;54.90;;;;;;5141964;27;20366;-45
2022/06/29 05:02:38;;;;;;;;;;;19.70;54.30;;;;;;5142583;27;20293;-50
2022/06/29 05:05:03;;;;;;;;;;;20.10;59.20;;;;;;5148478;27;19930;-47
2022/06/29 05:07:29;;;;;;;;;;;20.80;62.90;;;;;;5143174;27;19933;-45
2022/06/29 05:09:55;;;;;;;;;;;21.40;62.60;;;;;;5148959;27;19931;-45
2022/06/29 05:12:21;;;;;;;;;;;21.40;60.20;;;;;;5124522;27;19977;-48
2022/06/29 05:14:46;;;;;;;;;;;20.50;58.10;;;;;;5143217;27;19968;-47
2022/06/29 05:17:12;;;;;;;;;;;20.30;56.30;;;;;;5148290;27;19934;-55
2022/06/29 05:19:38;;;;;;;;;;;20.10;55.20;;;;;;5141451;27;19952;-45
2022/06/29 05:22:04;;;;;;;;;;;19.80;55.10;;;;;;5142272;27;19923;-50
2022/06/29 05:24:31;;;;;;;;;;;19.80;56.00;;;;;;5148416;27;20215;-50
2022/06/29 05:26:56;;;;;;;;;;;20.40;61.80;;;;;;5142885;27;19924;-46
2022/06/29 05:29:24;;;;;;;;;;;21.10;63.10;;;;;;5148622;27;19931;-47
2022/06/29 05:31:49;;;;;;;;;;;21.70;61.80;;;;;;5143253;27;19927;-49
2022/06/29 05:34:15;;;;;;;;;;;20.90;58.90;;;;;;5142859;27;19930;-45
2022/06/29 05:36:41;;;;;;;;;;;20.40;57.30;;;;;;5146493;27;20416;-46
2022/06/29 05:39:07;;;;;;;;;;;20.00;55.80;;;;;;5141606;27;19927;-45
2022/06/29 05:41:32;;;;;;;;;;;19.80;55.20;;;;;;5142634;27;20248;-46
2022/06/29 05:43:58;;;;;;;;;;;19.80;56.70;;;;;;5148135;27;19923;-49
2022/06/29 05:46:24;;;;;;;;;;;20.50;62.00;;;;;;5142776;27;20294;-50
2022/06/29 05:48:50;;;;;;;;;;;21.20;62.90;;;;;;5148179;27;19923;-45
2022/06/29 05:51:15;;;;;;;;;;;21.60;61.30;;;;;;5142472;27;19927;-47
2022/06/29 05:53:41;;;;;;;;;;;20.70;58.90;;;;;;5142364;27;19959;-46
2022/06/29 05:56:07;;;;;;;;;;;20.30;56.80;;;;;;5145988;27;19923;-45
2022/06/29 05:58:33;;;;;;;;;;;20.00;55.50;;;;;;5141921;27;19934;-46
2022/06/29 06:00:59;;;;;;;;;;;19.80;55.00;;;;;;5142062;27;20028;-49
2022/06/29 06:03:25;;;;;;;;;;;20.00;57.00;;;;;;5147768;27;19927;-50
2022/06/29 06:05:50;;;;;;;;;;;20.60;62.60;;;;;;5142359;27;19923;-48
2022/06/29 06:08:17;;;;;;;;;;;21.30;62.70;;;;;;5146106;27;19928;-53
2022/06/29 06:10:42;;;;;;;;;;;21.70;61.20;;;;;;5144024;27;19923;-45
2022/06/29 06:13:08;;;;;;;;;;;20.70;58.70;;;;;;5140683;27;19930;-49
2022/06/29 06:15:34;;;;;;;;;;;20.40;56.70;;;;;;5146227;27;19934;-46
2022/06/29 06:18:01;;;;;;;;;;;20.00;55.80;;;;;;5141495;27;19970;-45
2022/06/29 06:20:29;;;;;;;;;;;19.70;55.00;;;;;;5142079;27;19971;-47
2022/06/29 06:22:55;;;;;;;;;;;19.90;58.10;;;;;;5147632;27;19975;-48
2022/06/29 06:25:21;;;;;;;;;;;20.70;62.60;;;;;;5142060;27;20431;-48
2022/06/29 06:27:47;;;;;;;;;;;21.30;63.00;;;;;;5142180;27;20207;-53
2022/06/29 06:30:13;;;;;;;;;;;21.70;60.80;;;;;;5147571;27;19934;-54
2022/06/29 06:32:39;;;;;;;;;;;20.80;58.60;;;;;;5140364;27;19934;-50
2022/06/29 06:35:05;;;;;;;;;;;20.40;56.70;;;;;;5146757;27;19923;-46
2022/06/29 06:37:30;;;;;;;;;;;20.10;55.50;;;;;;5141623;27;19929;-45
2022/06/29 06:42:41;;;;;;;;;;;19.60;54.40;;;;;;5147344;27;20342;-50
2022/06/29 06:45:07;;;;;;;;;;;20.40;61.10;;;;;;5141936;27;19932;-48
2022/06/29 06:47:32;;;;;;;;;;;21.10;63.00;;;;;;5141868;27;20061;-46
2022/06/29 06:49:58;;;;;;;;;;;21.70;62.00;;;;;;5146000;27;20263;-49
2022/06/29 06:52:24;;;;;;;;;;;20.90;58.90;;;;;;5140684;27;19936;-46
2022/06/29 06:54:50;;;;;;;;;;;20.50;57.40;;;;;;5142547;27;19923;-54
2022/06/29 06:57:15;;;;;;;;;;;20.20;55.90;;;;;;5145651;27;20402;-47
2022/06/29 06:59:41;;;;;;;;;;;20.10;55.20;;;;;;5141609;27;20320;-47
2022/06/29 07:02:07;;;;;;;;;;;19.80;54.50;;;;;;5147246;27;19927;-46
2022/06/29 07:04:33;;;;;;;;;;;19.90;56.50;;;;;;5141694;27;19927;-47
2022/06/29 07:06:58;;;;;;;;;;;20.70;61.80;;;;;;5141848;27;19937;-50
2022/06/29 07:09:24;;;;;;;;;;;21.30;63.30;;;;;;5144989;27;19923;-44
2022/06/29 07:11:50;;;;;;;;;;;21.80;61.40;;;;;;5140687;27;19927;-45
2022/06/29 07:14:16;;;;;;;;;;;21.00;59.00;;;;;;5141226;27;19971;-45
2022/06/29 07:16:42;;;;;;;;;;;20.60;57.00;;;;;;5146590;27;20343;-45
2022/06/29 07:19:08;;;;;;;;;;;20.30;55.90;;;;;;5141674;27;19923;-46
2022/06/29 07:21:33;;;;;;;;;;;20.20;54.60;;;;;;5149446;27;20288;-45
2022/06/29 07:23:59;;;;;;;;;;;19.70;54.60;;;;;;5145500;27;19923;-47
2022/06/29 07:26:25;;;;;;;;;;;20.40;60.30;;;;;;5144551;27;20263;-49
2022/06/29 07:28:51;;;;;;;;;;;21.00;63.20;;;;;;5149336;27;19964;-48
2022/06/29 07:31:18;;;;;;;;;;;21.70;62.70;;;;;;5144675;27;20011;-49
2022/06/29 07:33:43;;;;;;;;;;;21.20;59.50;;;;;;5145273;27;20250;-44
2022/06/29 07:36:09;;;;;;;;;;;20.50;57.80;;;;;;5150845;27;20402;-47
2022/06/29 07:38:35;;;;;;;;;;;20.30;56.70;;;;;;5145313;27;19970;-47
2022/06/29 07:41:01;;;;;;;;;;;20.10;55.50;;;;;;5150501;27;19930;-45
2022/06/29 07:43:27;;;;;;;;;;;20.00;54.70;;;;;;5145213;27;19944;-46
2022/06/29 07:45:53;;;;;;;;;;;19.70;54.60;;;;;;5142961;27;19924;-47
2022/06/29 07:48:19;;;;;;;;;;;20.20;59.50;;;;;;5149660;27;19927;-48
2022/06/29 07:50:45;;;;;;;;;;;20.90;63.20;;;;;;5126244;27;20367;-48
2022/06/29 07:53:11;;;;;;;;;;;21.50;63.20;;;;;;5144866;27;20352;-44
2022/06/29 07:55:36;;;;;;;;;;;21.50;60.70;;;;;;5150255;27;20385;-47
2022/06/29 07:58:02;;;;;;;;;;;20.80;58.70;;;;;;5144997;27;19930;-45
2022/06/29 08:00:28;;;;;;;;;;;20.40;56.40;;;;;;5150124;27;20374;-49
2022/06/29 08:02:54;;;;;;;;;;;20.20;55.40;;;;;;5144127;27;19963;-44
2022/06/29 08:05:20;;;;;;;;;;;20.00;55.30;;;;;;5143110;27;20367;-45
2022/06/29 08:07:46;;;;;;;;;;;19.80;54.70;;;;;;5149982;27;20017;-49
2022/06/29 08:10:12;;;;;;;;;;;20.10;57.60;;;;;;5144307;27;20286;-52
2022/06/29 08:12:37;;;;;;;;;;;20.80;62.60;;;;;;5144532;27;20160;-48
2022/06/29 08:15:03;;;;;;;;;;;21.40;63.30;;;;;;5150075;27;20328;-47
2022/06/29 08:17:29;;;;;;;;;;;21.60;61.00;;;;;;5144641;27;19938;-47
2022/06/29 08:19:55;;;;;;;;;;;20.80;58.70;;;;;;5129203;27;19923;-55
2022/06/29 08:22:21;;;;;;;;;;;20.60;56.70;;;;;;5145362;27;19927;-48
2022/06/29 08:24:47;;;;;;;;;;;20.30;55.60;;;;;;5143121;27;19972;-47
2022/06/29 08:27:13;;;;;;;;;;;20.10;54.90;;;;;;5149344;27;20388;-47
2022/06/29 08:29:38;;;;;;;;;;;19.90;55.10;;;;;;5143994;27;19926;-50
2022/06/29 08:32:04;;;;;;;;;;;20.00;56.50;;;;;;5143588;27;19930;-48
2022/06/29 08:34:34;;;;;;;;;;;20.70;62.20;;;;;;5150188;27;19923;-47
2022/06/29 08:37:00;;;;;;;;;;;21.30;63.20;;;;;;5144060;27;20408;-48
2022/06/29 08:39:26;;;;;;;;;;;21.70;61.10;;;;;;5143223;27;19934;-45
2022/06/29 08:41:53;;;;;;;;;;;20.80;58.70;;;;;;5146845;27;21357;-46
2022/06/29 08:44:19;;;;;;;;;;;20.60;57.00;;;;;;5124857;27;20397;-45
2022/06/29 08:46:45;;;;;;;;;;;20.30;55.90;;;;;;5130621;27;20291;-45
2022/06/29 08:49:10;;;;;;;;;;;20.20;54.70;;;;;;5143566;27;20379;-46
2022/06/29 08:51:36;;;;;;;;;;;20.00;54.40;;;;;;5125184;27;19923;-47
2022/06/29 08:54:04;;;;;;;;;;;20.40;60.50;;;;;;5149529;27;19926;-47
2022/06/29 08:56:30;;;;;;;;;;;21.10;63.20;;;;;;5125511;27;19927;-49
2022/06/29 08:58:56;;;;;;;;;;;21.80;62.60;;;;;;5142033;27;19951;-48
2022/06/29 09:01:22;;;;;;;;;;;21.30;59.40;;;;;;5148336;27;19962;-48
2022/06/29 09:03:47;;;;;;;;;;;20.80;57.80;;;;;;5124680;27;20357;-46
2022/06/29 09:06:13;;;;;;;;;;;20.40;56.20;;;;;;5148370;27;19941;-45
2022/06/29 09:08:39;;;;;;;;;;;20.20;55.40;;;;;;5143449;27;20019;-45
2022/06/29 09:11:24;;;;;;;;;;;20.20;54.30;;;;;;5143571;27;19931;-47
2022/06/29 09:14:11;;;;;;;;;;;20.00;55.90;;;;;;5148810;27;20455;-49
2022/06/29 09:16:55;;;;;;;;;;;20.80;62.20;;;;;;5146765;27;19930;-48
2022/06/29 09:19:21;;;;;;;;;;;21.50;63.10;;;;;;5141783;27;19931;-52
2022/06/29 09:21:47;;;;;;;;;;;21.40;60.00;;;;;;5147499;27;19951;-54
2022/06/29 09:24:14;;;;;;;;;;;20.70;58.20;;;;;;5143540;27;20331;-45
2022/06/29 09:26:40;;;;;;;;;;;20.50;56.40;;;;;;5142875;27;19923;-48
2022/06/29 09:29:18;;;;;;;;;;;20.20;55.70;;;;;;5148630;27;19930;-45
2022/06/29 09:31:43;;;;;;;;;;;20.10;54.90;;;;;;5142742;27;20412;-46
2022/06/29 09:34:17;;;;;;;;;;;19.90;54.40;;;;;;5122907;27;19923;-50
2022/06/29 09:36:56;;;;;;;;;;;20.50;60.80;;;;;;5144570;27;19975;-50
2022/06/29 09:39:31;;;;;;;;;;;21.10;63.40;;;;;;5142326;27;19979;-47
2022/06/29 09:41:57;;;;;;;;;;;21.80;61.70;;;;;;5142520;27;20539;-45
2022/06/29 09:44:23;;;;;;;;;;;21.10;58.90;;;;;;5147392;27;20305;-46
2022/06/29 09:46:49;;;;;;;;;;;20.70;57.10;;;;;;5142528;27;19969;-47
2022/06/29 09:49:15;;;;;;;;;;;20.30;56.00;;;;;;5142762;27;20266;-47
2022/06/29 09:51:41;;;;;;;;;;;20.20;55.20;;;;;;5148100;27;20551;-47
2022/06/29 09:54:07;;;;;;;;;;;20.00;54.80;;;;;;5140976;27;20169;-48
2022/06/29 09:56:33;;;;;;;;;;;19.90;54.20;;;;;;5146828;27;20174;-47
2022/06/29 09:58:59;;;;;;;;;;;20.00;55.70;;;;;;5122288;27;20025;-48
2022/06/29 10:04:10;;;;;;;;;;;21.30;62.80;;;;;;5148018;27;19933;-45
2022/06/29 10:06:36;;;;;;;;;;;21.80;61.40;;;;;;5142438;27;19975;-46
2022/06/29 10:09:02;;;;;;;;;;;21.10;58.60;;;;;;5142107;27;19936;-50
2022/06/29 10:14:43;;;;;;;;;;;20.80;55.60;;;;;;5125325;27;19927;-47
2022/06/29 10:17:13;;;;;;;;;;;20.30;55.10;;;;;;5142131;27;19923;-45
2022/06/29 10:19:40;;;;;;;;;;;20.10;54.40;;;;;;5128889;27;20006;-46
2022/06/29 10:22:06;;;;;;;;;;;20.10;53.70;;;;;;5123309;27;20047;-45
2022/06/29 10:24:32;;;;;;;;;;;20.30;59.80;;;;;;5122585;27;19958;-47
2022/06/29 10:27:03;;;;;;;;;;;20.90;62.90;;;;;;5147553;27;19930;-45
2022/06/29 10:29:29;;;;;;;;;;;21.70;62.80;;;;;;5121697;27;19967;-48
2022/06/29 10:31:56;;;;;;;;;;;21.50;60.20;;;;;;5139791;27;19970;-46
2022/06/29 10:34:28;;;;;;;;;;;20.80;57.80;;;;;;5146843;27;19926;-46
2022/06/29 10:36:57;;;;;;;;;;;20.60;56.20;;;;;;5141899;27;19934;-47
2022/06/29 10:39:22;;;;;;;;;;;20.20;55.60;;;;;;5142439;27;20018;-54
2022/06/29 10:44:59;;;;;;;;;;;19.80;54.80;;;;;;5142093;27;19927;-45
2022/06/29 10:47:25;;;;;;;;;;;20.00;57.00;;;;;;5102265;27;20378;-47
2022/06/29 10:50:10;;;;;;;;;;;20.90;61.80;;;;;;5145465;27;20010;-48
2022/06/29 10:52:36;;;;;;;;;;;21.50;62.80;;;;;;5141301;27;19923;-46
2022/06/29 10:55:05;;;;;;;;;;;21.30;60.00;;;;;;5123047;27;19945;-49
2022/06/29 10:57:34;;;;;;;;;;;20.80;58.20;;;;;;5151394;27;19927;-49
2022/06/29 10:59:59;;;;;;;;;;;20.40;56.70;;;;;;5145977;27;19979;-46
2022/06/29 11:02:25;;;;;;;;;;;20.30;55.70;;;;;;5151263;27;19927;-51
2022/06/29 11:04:51;;;;;;;;;;;20.30;54.90;;;;;;5127751;27;20011;-46
2022/06/29 11:12:49;;;;;;;;;;;20.70;62.20;;;;;;5150562;27;19934;-47
2022/06/29 11:15:45;;;;;;;;;;;21.40;63.20;;;;;;5145466;27;19981;-46
2022/06/29 11:18:11;;;;;;;;;;;21.70;61.20;;;;;;5145638;27;19937;-47
2022/06/29 11:20:38;;;;;;;;;;;21.00;58.20;;;;;;5151136;27;19923;-49
2022/06/29 11:23:05;;;;;;;;;;;20.70;56.70;;;;;;5145589;27;20302;-45
2022/06/29 11:25:35;;;;;;;;;;;20.50;55.50;;;;;;5128859;27;19923;-49
2022/06/29 11:28:00;;;;;;;;;;;20.30;54.90;;;;;;5144085;27;19923;-46
2022/06/29 11:30:26;;;;;;;;;;;20.10;54.60;;;;;;5144960;27;19940;-52
2022/06/29 11:32:52;;;;;;;;;;;19.80;54.30;;;;;;5150456;27;19923;-49
2022/06/29 11:35:19;;;;;;;;;;;20.30;58.40;;;;;;5145358;27;19963;-49
2022/06/29 11:37:52;;;;;;;;;;;21.00;62.40;;;;;;5145520;27;20146;-49
2022/06/29 11:40:37;;;;;;;;;;;21.60;63.10;;;;;;5130085;27;19931;-47
2022/06/29 11:43:06;;;;;;;;;;;21.50;60.40;;;;;;5124107;27;19941;-49
2022/06/29 11:45:38;;;;;;;;;;;20.80;58.00;;;;;;5143043;27;20256;-48
2022/06/29 11:48:13;;;;;;;;;;;20.60;56.30;;;;;;5149971;27;19974;-46
2022/06/29 11:50:46;;;;;;;;;;;20.40;55.80;;;;;;5144666;27;19927;-46
2022/06/29 11:53:13;;;;;;;;;;;20.30;54.80;;;;;;5144892;27;20326;-48
2022/06/29 11:55:43;;;;;;;;;;;20.20;54.30;;;;;;5150258;27;19923;-47
2022/06/29 11:58:09;;;;;;;;;;;20.10;54.20;;;;;;5145006;27;19960;-46
2022/06/29 12:00:37;;;;;;;;;;;20.30;57.70;;;;;;5147124;27;19927;-56
2022/06/29 12:03:03;;;;;;;;;;;21.00;62.10;;;;;;5146779;27;20029;-47
2022/06/29 12:05:29;;;;;;;;;;;21.60;62.90;;;;;;5143666;27;19927;-46
2022/06/29 12:07:54;;;;;;;;;;;21.70;60.70;;;;;;5149080;27;19923;-44
2022/06/29 12:10:21;;;;;;;;;;;21.00;58.30;;;;;;5144442;27;20148;-49
2022/06/29 12:12:47;;;;;;;;;;;20.70;56.80;;;;;;5144587;27;19922;-49
2022/06/29 12:15:14;;;;;;;;;;;20.50;55.50;;;;;;5150257;27;20414;-44
2022/06/29 12:17:40;;;;;;;;;;;20.20;55.40;;;;;;5144465;27;19923;-45
2022/06/29 12:20:06;;;;;;;;;;;20.20;54.60;;;;;;5143713;27;19923;-46
2022/06/29 12:22:35;;;;;;;;;;;20.30;54.00;;;;;;5148255;27;19931;-47
2022/06/29 12:25:00;;;;;;;;;;;20.20;56.40;;;;;;5143764;27;19923;-46
2022/06/29 12:27:27;;;;;;;;;;;20.80;61.70;;;;;;5149738;27;19979;-47
2022/06/29 12:29:53;;;;;;;;;;;21.50;63.00;;;;;;5144126;27;19929;-48
2022/06/29 12:32:18;;;;;;;;;;;21.80;61.60;;;;;;5124953;27;19927;-47
2022/06/29 12:34:44;;;;;;;;;;;21.00;59.00;;;;;;5149717;27;19972;-46
2022/06/29 12:37:10;;;;;;;;;;;20.80;57.50;;;;;;5144053;27;19940;-49
2022/06/29 12:39:36;;;;;;;;;;;20.50;56.40;;;;;;5142329;27;19934;-46
2022/06/29 12:42:02;;;;;;;;;;;20.50;55.30;;;;;;5148421;27;20490;-46
2022/06/29 12:44:29;;;;;;;;;;;20.30;54.70;;;;;;5143646;27;19929;-47
2022/06/29 12:46:54;;;;;;;;;;;20.10;54.40;;;;;;5149063;27;19923;-49
2022/06/29 12:49:20;;;;;;;;;;;19.90;54.50;;;;;;5144020;27;20341;-48
2022/06/29 12:51:46;;;;;;;;;;;20.30;58.80;;;;;;5143862;27;19923;-46
2022/06/29 12:54:12;;;;;;;;;;;21.00;62.30;;;;;;5149055;27;19949;-48
2022/06/29 12:56:38;;;;;;;;;;;21.70;63.00;;;;;;5142784;27;20328;-45
2022/06/29 12:59:04;;;;;;;;;;;21.30;60.40;;;;;;5141916;27;20077;-50
2022/06/29 13:01:30;;;;;;;;;;;20.80;58.40;;;;;;5148935;27;20093;-48
2022/06/29 13:03:56;;;;;;;;;;;20.70;56.50;;;;;;5143356;27;19929;-46
2022/06/29 13:06:21;;;;;;;;;;;20.40;55.60;;;;;;5146573;27;20390;-55
2022/06/29 13:08:47;;;;;;;;;;;20.40;54.70;;;;;;5145776;27;19976;-46
2022/06/29 13:11:13;;;;;;;;;;;20.30;54.50;;;;;;5143518;27;19973;-46
2022/06/29 13:13:40;;;;;;;;;;;20.20;54.00;;;;;;5148565;27;19927;-48
2022/06/29 13:16:06;;;;;;;;;;;20.30;59.70;;;;;;5141715;27;20017;-48
2022/06/29 13:18:32;;;;;;;;;;;21.10;62.70;;;;;;5141954;27;19927;-52
2022/06/29 13:20:58;;;;;;;;;;;21.80;62.90;;;;;;5148254;27;19934;-50
2022/06/29 13:23:24;;;;;;;;;;;21.50;60.30;;;;;;5142779;27;19923;-46
2022/06/29 13:25:51;;;;;;;;;;;20.90;58.20;;;;;;5143559;27;19938;-53
2022/06/29 13:28:16;;;;;;;;;;;20.70;56.40;;;;;;5148834;27;20381;-52
2022/06/29 13:30:42;;;;;;;;;;;20.50;55.40;;;;;;5143031;27;19927;-46
2022/06/29 13:33:08;;;;;;;;;;;20.30;55.10;;;;;;5112423;27;19944;-49
2022/06/29 13:35:34;;;;;;;;;;;20.40;54.10;;;;;;5122223;27;19927;-52
2022/06/29 13:38:02;;;;;;;;;;;19.90;54.40;;;;;;5142232;27;20378;-50
2022/06/29 13:40:28;;;;;;;;;;;20.60;60.80;;;;;;5147963;27;19929;-49
2022/06/29 13:42:54;;;;;;;;;;;21.30;63.20;;;;;;5142327;27;20297;-49
2022/06/29 13:45:20;;;;;;;;;;;21.80;62.40;;;;;;5142641;27;19923;-48
2022/06/29 13:47:46;;;;;;;;;;;21.20;59.70;;;;;;5148481;27;20025;-50
2022/06/29 13:50:12;;;;;;;;;;;20.90;57.50;;;;;;5123777;27;19927;-48
2022/06/29 13:52:38;;;;;;;;;;;20.80;56.00;;;;;;5146744;27;19923;-50
2022/06/29 13:55:04;;;;;;;;;;;20.60;55.10;;;;;;5141189;27;20319;-49
2022/06/29 13:57:30;;;;;;;;;;;20.30;54.60;;;;;;5142116;27;19923;-52
2022/06/29 13:59:57;;;;;;;;;;;20.30;54.40;;;;;;5147798;27;20382;-46
2022/06/29 14:02:23;;;;;;;;;;;20.00;54.70;;;;;;5142520;27;19923;-46
2022/06/29 14:04:49;;;;;;;;;;;20.10;54.20;;;;;;5142566;27;20065;-46
2022/06/29 14:07:15;;;;;;;;;;;20.10;54.00;;;;;;5147674;27;19930;-45
2022/06/29 14:09:40;;;;;;;;;;;20.10;53.70;;;;;;5142083;27;19975;-50
2022/06/29 14:12:06;;;;;;;;;;;20.40;59.80;;;;;;5145125;27;20302;-55
2022/06/29 14:14:32;;;;;;;;;;;21.00;62.90;;;;;;5142743;27;20285;-49
2022/06/29 14:16:58;;;;;;;;;;;21.60;63.10;;;;;;5141869;27;19931;-51
2022/06/29 14:19:24;;;;;;;;;;;21.60;60.80;;;;;;5147417;27;19923;-44
2022/06/29 14:21:50;;;;;;;;;;;21.00;58.70;;;;;;5142118;27;19930;-47
2022/06/29 14:24:16;;;;;;;;;;;20.70;56.80;;;;;;5142335;27;19930;-44
2022/06/29 14:26:41;;;;;;;;;;;20.40;55.90;;;;;;5147206;27;19992;-48
2022/06/29 14:29:08;;;;;;;;;;;20.50;55.00;;;;;;5140325;27;19979;-51
2022/06/29 14:31:34;;;;;;;;;;;20.20;54.60;;;;;;5143039;27;20013;-53
2022/06/29 14:33:59;;;;;;;;;;;19.90;54.60;;;;;;5144839;27;19927;-47
2022/06/29 14:36:25;;;;;;;;;;;20.40;59.20;;;;;;5121911;27;19930;-48
2022/06/29 14:38:51;;;;;;;;;;;21.10;62.70;;;;;;5147332;27;19930;-49
2022/06/29 14:41:17;;;;;;;;;;;21.80;62.70;;;;;;5123182;27;19991;-48